sensor_id;sensor_type;location;lat;lon;timestamp;P1;durP1;ratioP1;P2;durP2;ratioP2
1785;SDS011;890;48.158;11.540;2022-08-11T00:00:00;4.40;;;4.10;;
1785;SDS011;890;48.158;11.540;2022-08-11T00:02:49;4.23;;;3.93;;
1785;SDS011;890;48.158;11.540;2022-08-11T00:05:18;4.30;;;3.90;;
1785;SDS011;890;48.158;11.540;2022-08-11T00:07:49;5.13;;;4.40;;
1785;SDS011;890;48.158;11.540;2022-08-11T00:10:18;4.60;;;4.20;;
1785;SDS011;890;48.158;11.540;2022-08-11T00:12:59;5.90;;;4.43;;
1785;SDS011;890;48.158;11.540;2022-08-11T00:15:28;6.03;;;4.23;;
1785;SDS011;890;48.158;11.540;2022-08-11T00:18:09;4.60;;;4.20;;
1785;SDS011;890;48.158;11.540;2022-08-11T00:20:37;5.10;;;4.70;;
1785;SDS011;890;48.158;11.540;2022-08-11T00:23:08;4.90;;;4.50;;
1785;SDS011;890;48.158;11.540;2022-08-11T00:25:41;5.17;;;4.67;;
1785;SDS011;890;48.158;11.540;2022-08-11T00:28:22;5.27;;;4.40;;
1785;SDS011;890;48.158;11.540;2022-08-11T00:30:51;4.77;;;4.33;;
1785;SDS011;890;48.158;11.540;2022-08-11T00:33:18;4.70;;;4.17;;
1785;SDS011;890;48.158;11.540;2022-08-11T00:35:46;6.57;;;4.50;;
1785;SDS011;890;48.158;11.540;2022-08-11T00:38:15;5.23;;;4.63;;
1785;SDS011;890;48.158;11.540;2022-08-11T00:43:43;4.97;;;4.20;;
1785;SDS011;890;48.158;11.540;2022-08-11T00:49:37;4.40;;;4.10;;
1785;SDS011;890;48.158;11.540;2022-08-11T00:51:54;4.10;;;3.80;;
1785;SDS011;890;48.158;11.540;2022-08-11T01:06:01;5.80;;;5.00;;
1785;SDS011;890;48.158;11.540;2022-08-11T01:14:37;5.37;;;4.97;;
1785;SDS011;890;48.158;11.540;2022-08-11T01:51:49;7.40;;;5.33;;
1785;SDS011;890;48.158;11.540;2022-08-11T01:57:45;5.30;;;4.90;;
1785;SDS011;890;48.158;11.540;2022-08-11T02:00:30;4.90;;;4.40;;
1785;SDS011;890;48.158;11.540;2022-08-11T02:08:33;6.43;;;4.63;;
1785;SDS011;890;48.158;11.540;2022-08-11T02:17:04;5.80;;;5.40;;
1785;SDS011;890;48.158;11.540;2022-08-11T02:19:53;5.10;;;4.70;;
1785;SDS011;890;48.158;11.540;2022-08-11T02:25:56;6.17;;;5.10;;
1785;SDS011;890;48.158;11.540;2022-08-11T02:37:16;4.80;;;4.40;;
1785;SDS011;890;48.158;11.540;2022-08-11T02:39:58;5.47;;;4.87;;
1785;SDS011;890;48.158;11.540;2022-08-11T02:53:36;5.77;;;5.17;;
1785;SDS011;890;48.158;11.540;2022-08-11T02:56:26;7.63;;;5.57;;
1785;SDS011;890;48.158;11.540;2022-08-11T03:02:15;7.60;;;5.40;;
1785;SDS011;890;48.158;11.540;2022-08-11T03:10:22;6.13;;;5.37;;
1785;SDS011;890;48.158;11.540;2022-08-11T03:13:03;6.07;;;5.47;;
1785;SDS011;890;48.158;11.540;2022-08-11T03:16:31;5.77;;;5.27;;
1785;SDS011;890;48.158;11.540;2022-08-11T03:19:32;6.43;;;5.90;;
1785;SDS011;890;48.158;11.540;2022-08-11T03:25:01;6.07;;;5.47;;
1785;SDS011;890;48.158;11.540;2022-08-11T03:27:49;6.37;;;5.77;;
1785;SDS011;890;48.158;11.540;2022-08-11T03:30:39;6.40;;;5.90;;
1785;SDS011;890;48.158;11.540;2022-08-11T03:33:31;5.93;;;5.47;;
1785;SDS011;890;48.158;11.540;2022-08-11T03:39:41;5.67;;;5.27;;
1785;SDS011;890;48.158;11.540;2022-08-11T03:42:31;5.93;;;5.43;;
1785;SDS011;890;48.158;11.540;2022-08-11T03:45:20;6.37;;;5.87;;
1785;SDS011;890;48.158;11.540;2022-08-11T04:27:00;6.03;;;5.53;;
1785;SDS011;890;48.158;11.540;2022-08-11T04:35:38;7.43;;;6.03;;
1785;SDS011;890;48.158;11.540;2022-08-11T04:38:33;7.07;;;6.30;;
1785;SDS011;890;48.158;11.540;2022-08-11T04:47:18;7.03;;;6.33;;
1785;SDS011;890;48.158;11.540;2022-08-11T04:57:16;7.00;;;6.30;;
1785;SDS011;890;48.158;11.540;2022-08-11T05:00:07;6.40;;;5.60;;
1785;SDS011;890;48.158;11.540;2022-08-11T05:16:10;7.70;;;6.50;;
1785;SDS011;890;48.158;11.540;2022-08-11T05:18:56;6.60;;;6.10;;
1785;SDS011;890;48.158;11.540;2022-08-11T05:21:44;7.73;;;6.20;;
1785;SDS011;890;48.158;11.540;2022-08-11T05:27:34;7.33;;;6.73;;
1785;SDS011;890;48.158;11.540;2022-08-11T05:30:25;6.87;;;6.27;;
1785;SDS011;890;48.158;11.540;2022-08-11T05:33:14;7.10;;;6.00;;
1785;SDS011;890;48.158;11.540;2022-08-11T05:39:00;7.10;;;6.50;;
1785;SDS011;890;48.158;11.540;2022-08-11T05:41:47;6.77;;;6.10;;
1785;SDS011;890;48.158;11.540;2022-08-11T05:44:33;7.00;;;6.27;;
1785;SDS011;890;48.158;11.540;2022-08-11T05:47:24;7.60;;;6.10;;
1785;SDS011;890;48.158;11.540;2022-08-11T05:50:10;6.47;;;5.80;;
1785;SDS011;890;48.158;11.540;2022-08-11T05:52:55;5.80;;;5.30;;
1785;SDS011;890;48.158;11.540;2022-08-11T05:55:41;6.77;;;6.17;;
1785;SDS011;890;48.158;11.540;2022-08-11T05:58:30;5.60;;;5.13;;
1785;SDS011;890;48.158;11.540;2022-08-11T06:01:00;6.67;;;6.07;;
1785;SDS011;890;48.158;11.540;2022-08-11T06:03:28;6.17;;;5.40;;
1785;SDS011;890;48.158;11.540;2022-08-11T06:05:56;5.83;;;5.43;;
1785;SDS011;890;48.158;11.540;2022-08-11T06:08:29;6.57;;;5.87;;
1785;SDS011;890;48.158;11.540;2022-08-11T06:11:01;6.17;;;5.50;;
1785;SDS011;890;48.158;11.540;2022-08-11T06:13:29;6.60;;;5.97;;
1785;SDS011;890;48.158;11.540;2022-08-11T06:15:56;7.80;;;6.40;;
1785;SDS011;890;48.158;11.540;2022-08-11T06:18:23;6.23;;;5.63;;
1785;SDS011;890;48.158;11.540;2022-08-11T06:20:55;6.20;;;5.70;;
1785;SDS011;890;48.158;11.540;2022-08-11T06:23:29;6.20;;;5.60;;
1785;SDS011;890;48.158;11.540;2022-08-11T06:25:57;6.33;;;5.83;;
1785;SDS011;890;48.158;11.540;2022-08-11T06:28:34;6.93;;;6.10;;
1785;SDS011;890;48.158;11.540;2022-08-11T06:31:01;7.10;;;5.97;;
1785;SDS011;890;48.158;11.540;2022-08-11T06:34:27;8.77;;;5.73;;
1785;SDS011;890;48.158;11.540;2022-08-11T06:36:49;6.40;;;5.90;;
1785;SDS011;890;48.158;11.540;2022-08-11T06:42:10;5.93;;;5.43;;
1785;SDS011;890;48.158;11.540;2022-08-11T06:44:41;7.37;;;5.80;;
1785;SDS011;890;48.158;11.540;2022-08-11T06:47:14;7.63;;;5.33;;
1785;SDS011;890;48.158;11.540;2022-08-11T06:49:43;6.60;;;6.00;;
1785;SDS011;890;48.158;11.540;2022-08-11T06:52:35;5.90;;;5.40;;
1785;SDS011;890;48.158;11.540;2022-08-11T06:55:35;6.67;;;6.07;;
1785;SDS011;890;48.158;11.540;2022-08-11T06:58:13;11.60;;;6.43;;
1785;SDS011;890;48.158;11.540;2022-08-11T07:01:04;6.40;;;5.60;;
1785;SDS011;890;48.158;11.540;2022-08-11T07:03:47;7.60;;;6.70;;
1785;SDS011;890;48.158;11.540;2022-08-11T07:13:03;5.80;;;5.30;;
1785;SDS011;890;48.158;11.540;2022-08-11T07:15:50;6.60;;;6.00;;
1785;SDS011;890;48.158;11.540;2022-08-11T07:18:21;6.13;;;5.40;;
1785;SDS011;890;48.158;11.540;2022-08-11T07:21:12;5.50;;;5.10;;
1785;SDS011;890;48.158;11.540;2022-08-11T07:24:16;7.57;;;5.40;;
1785;SDS011;890;48.158;11.540;2022-08-11T07:27:07;6.13;;;5.60;;
1785;SDS011;890;48.158;11.540;2022-08-11T07:30:04;5.63;;;5.23;;
1785;SDS011;890;48.158;11.540;2022-08-11T07:32:32;6.17;;;5.57;;
1785;SDS011;890;48.158;11.540;2022-08-11T07:35:10;7.13;;;5.97;;
1785;SDS011;890;48.158;11.540;2022-08-11T07:37:40;6.10;;;5.50;;
1785;SDS011;890;48.158;11.540;2022-08-11T07:40:09;6.60;;;5.93;;
1785;SDS011;890;48.158;11.540;2022-08-11T07:42:35;5.43;;;4.97;;
1785;SDS011;890;48.158;11.540;2022-08-11T07:45:05;5.63;;;5.17;;
1785;SDS011;890;48.158;11.540;2022-08-11T07:47:51;5.43;;;4.87;;
1785;SDS011;890;48.158;11.540;2022-08-11T07:50:41;5.67;;;5.13;;
1785;SDS011;890;48.158;11.540;2022-08-11T07:53:27;6.40;;;5.63;;
1785;SDS011;890;48.158;11.540;2022-08-11T07:55:55;5.60;;;5.00;;
1785;SDS011;890;48.158;11.540;2022-08-11T07:58:22;6.20;;;5.60;;
1785;SDS011;890;48.158;11.540;2022-08-11T08:01:07;6.60;;;5.97;;
1785;SDS011;890;48.158;11.540;2022-08-11T08:03:54;7.93;;;5.97;;
1785;SDS011;890;48.158;11.540;2022-08-11T08:06:38;6.03;;;5.53;;
1785;SDS011;890;48.158;11.540;2022-08-11T08:09:23;8.43;;;5.87;;
1785;SDS011;890;48.158;11.540;2022-08-11T08:12:08;6.47;;;5.43;;
1785;SDS011;890;48.158;11.540;2022-08-11T08:14:53;6.30;;;5.77;;
1785;SDS011;890;48.158;11.540;2022-08-11T08:17:40;6.20;;;5.60;;
1785;SDS011;890;48.158;11.540;2022-08-11T08:20:20;5.87;;;5.07;;
1785;SDS011;890;48.158;11.540;2022-08-11T08:23:04;8.57;;;5.60;;
1785;SDS011;890;48.158;11.540;2022-08-11T08:25:31;6.13;;;5.53;;
1785;SDS011;890;48.158;11.540;2022-08-11T08:28:00;6.27;;;5.67;;
1785;SDS011;890;48.158;11.540;2022-08-11T08:30:29;5.77;;;5.27;;
1785;SDS011;890;48.158;11.540;2022-08-11T08:33:24;6.17;;;5.57;;
1785;SDS011;890;48.158;11.540;2022-08-11T08:35:52;6.30;;;5.70;;
1785;SDS011;890;48.158;11.540;2022-08-11T08:38:41;6.37;;;5.63;;
1785;SDS011;890;48.158;11.540;2022-08-11T08:41:27;5.93;;;5.43;;
1785;SDS011;890;48.158;11.540;2022-08-11T08:43:57;5.33;;;4.90;;
1785;SDS011;890;48.158;11.540;2022-08-11T08:46:29;6.00;;;5.50;;
1785;SDS011;890;48.158;11.540;2022-08-11T08:48:59;5.60;;;5.10;;
1785;SDS011;890;48.158;11.540;2022-08-11T08:51:27;5.80;;;5.30;;
1785;SDS011;890;48.158;11.540;2022-08-11T08:54:02;5.40;;;5.00;;
1785;SDS011;890;48.158;11.540;2022-08-11T08:56:29;6.07;;;4.77;;
1785;SDS011;890;48.158;11.540;2022-08-11T08:58:58;7.00;;;5.23;;
1785;SDS011;890;48.158;11.540;2022-08-11T09:01:30;5.60;;;5.20;;
1785;SDS011;890;48.158;11.540;2022-08-11T09:04:02;6.03;;;5.43;;
1785;SDS011;890;48.158;11.540;2022-08-11T09:06:32;10.73;;;5.17;;
1785;SDS011;890;48.158;11.540;2022-08-11T09:09:03;5.20;;;4.80;;
1785;SDS011;890;48.158;11.540;2022-08-11T09:11:32;5.43;;;5.03;;
1785;SDS011;890;48.158;11.540;2022-08-11T09:14:24;6.07;;;5.57;;
1785;SDS011;890;48.158;11.540;2022-08-11T09:17:12;5.40;;;4.90;;
1785;SDS011;890;48.158;11.540;2022-08-11T09:19:38;6.43;;;4.80;;
1785;SDS011;890;48.158;11.540;2022-08-11T09:22:04;4.50;;;4.20;;
1785;SDS011;890;48.158;11.540;2022-08-11T09:24:49;5.20;;;4.80;;
1785;SDS011;890;48.158;11.540;2022-08-11T09:27:34;9.03;;;5.37;;
1785;SDS011;890;48.158;11.540;2022-08-11T09:30:03;6.77;;;5.23;;
1785;SDS011;890;48.158;11.540;2022-08-11T09:32:29;5.90;;;5.30;;
1785;SDS011;890;48.158;11.540;2022-08-11T09:34:57;6.17;;;5.67;;
1785;SDS011;890;48.158;11.540;2022-08-11T09:37:25;5.07;;;4.67;;
1785;SDS011;890;48.158;11.540;2022-08-11T09:40:12;5.00;;;4.60;;
1785;SDS011;890;48.158;11.540;2022-08-11T09:42:58;6.70;;;4.37;;
1785;SDS011;890;48.158;11.540;2022-08-11T09:45:48;5.10;;;4.67;;
1785;SDS011;890;48.158;11.540;2022-08-11T09:48:22;4.20;;;3.80;;
1785;SDS011;890;48.158;11.540;2022-08-11T09:50:51;4.40;;;4.00;;
1785;SDS011;890;48.158;11.540;2022-08-11T09:53:19;6.00;;;3.80;;
1785;SDS011;890;48.158;11.540;2022-08-11T09:55:45;15.00;;;6.47;;
1785;SDS011;890;48.158;11.540;2022-08-11T09:58:13;6.30;;;3.70;;
1785;SDS011;890;48.158;11.540;2022-08-11T10:00:43;3.73;;;3.43;;
1785;SDS011;890;48.158;11.540;2022-08-11T10:03:17;4.77;;;3.60;;
1785;SDS011;890;48.158;11.540;2022-08-11T10:05:47;4.93;;;3.53;;
1785;SDS011;890;48.158;11.540;2022-08-11T10:08:36;3.77;;;3.47;;
1785;SDS011;890;48.158;11.540;2022-08-11T10:11:05;4.30;;;3.43;;
1785;SDS011;890;48.158;11.540;2022-08-11T10:13:36;5.50;;;3.57;;
1785;SDS011;890;48.158;11.540;2022-08-11T10:16:25;6.53;;;3.60;;
1785;SDS011;890;48.158;11.540;2022-08-11T10:18:53;3.83;;;3.53;;
1785;SDS011;890;48.158;11.540;2022-08-11T10:24:01;4.63;;;3.83;;
1785;SDS011;890;48.158;11.540;2022-08-11T10:26:47;5.63;;;3.47;;
1785;SDS011;890;48.158;11.540;2022-08-11T10:29:18;4.40;;;3.90;;
1785;SDS011;890;48.158;11.540;2022-08-11T10:32:27;6.63;;;3.63;;
1785;SDS011;890;48.158;11.540;2022-08-11T10:35:13;3.90;;;3.60;;
1785;SDS011;890;48.158;11.540;2022-08-11T10:37:41;3.20;;;2.87;;
1785;SDS011;890;48.158;11.540;2022-08-11T10:40:09;6.47;;;3.30;;
1785;SDS011;890;48.158;11.540;2022-08-11T10:42:41;6.90;;;3.17;;
1785;SDS011;890;48.158;11.540;2022-08-11T10:45:26;3.17;;;2.87;;
1785;SDS011;890;48.158;11.540;2022-08-11T10:48:15;3.53;;;3.00;;
1785;SDS011;890;48.158;11.540;2022-08-11T10:50:45;3.60;;;3.30;;
1785;SDS011;890;48.158;11.540;2022-08-11T10:53:31;5.00;;;2.97;;
1785;SDS011;890;48.158;11.540;2022-08-11T10:56:17;5.00;;;4.50;;
1785;SDS011;890;48.158;11.540;2022-08-11T10:59:02;4.10;;;3.20;;
1785;SDS011;890;48.158;11.540;2022-08-11T11:01:33;4.40;;;3.00;;
1785;SDS011;890;48.158;11.540;2022-08-11T11:04:16;2.90;;;2.70;;
1785;SDS011;890;48.158;11.540;2022-08-11T11:07:09;3.07;;;2.80;;
1785;SDS011;890;48.158;11.540;2022-08-11T11:09:46;3.53;;;2.80;;
1785;SDS011;890;48.158;11.540;2022-08-11T11:12:29;3.40;;;3.20;;
1785;SDS011;890;48.158;11.540;2022-08-11T11:15:29;3.20;;;2.63;;
1785;SDS011;890;48.158;11.540;2022-08-11T11:20:47;3.10;;;2.90;;
1785;SDS011;890;48.158;11.540;2022-08-11T11:29:10;3.60;;;3.30;;
1785;SDS011;890;48.158;11.540;2022-08-11T11:37:07;3.30;;;3.10;;
1785;SDS011;890;48.158;11.540;2022-08-11T11:39:35;3.30;;;3.00;;
1785;SDS011;890;48.158;11.540;2022-08-11T11:42:03;4.07;;;3.13;;
1785;SDS011;890;48.158;11.540;2022-08-11T11:44:31;3.40;;;3.10;;
1785;SDS011;890;48.158;11.540;2022-08-11T11:46:57;7.27;;;3.10;;
1785;SDS011;890;48.158;11.540;2022-08-11T11:49:26;3.20;;;3.00;;
1785;SDS011;890;48.158;11.540;2022-08-11T11:51:53;4.03;;;3.67;;
1785;SDS011;890;48.158;11.540;2022-08-11T11:54:21;6.57;;;3.40;;
1785;SDS011;890;48.158;11.540;2022-08-11T11:56:51;3.60;;;3.00;;
1785;SDS011;890;48.158;11.540;2022-08-11T11:59:22;9.60;;;3.33;;
1785;SDS011;890;48.158;11.540;2022-08-11T12:02:08;3.50;;;3.20;;
1785;SDS011;890;48.158;11.540;2022-08-11T12:04:36;3.43;;;3.13;;
1785;SDS011;890;48.158;11.540;2022-08-11T12:07:09;4.27;;;2.83;;
1785;SDS011;890;48.158;11.540;2022-08-11T12:09:54;5.23;;;2.97;;
1785;SDS011;890;48.158;11.540;2022-08-11T12:12:22;4.50;;;3.20;;
1785;SDS011;890;48.158;11.540;2022-08-11T12:15:08;3.77;;;3.30;;
1785;SDS011;890;48.158;11.540;2022-08-11T12:17:34;3.33;;;3.10;;
1785;SDS011;890;48.158;11.540;2022-08-11T12:20:01;3.03;;;2.73;;
1785;SDS011;890;48.158;11.540;2022-08-11T12:22:29;4.43;;;3.33;;
1785;SDS011;890;48.158;11.540;2022-08-11T12:25:24;4.50;;;3.20;;
1785;SDS011;890;48.158;11.540;2022-08-11T12:28:08;10.50;;;9.37;;
1785;SDS011;890;48.158;11.540;2022-08-11T12:30:34;3.43;;;3.13;;
1785;SDS011;890;48.158;11.540;2022-08-11T12:33:00;3.90;;;3.03;;
1785;SDS011;890;48.158;11.540;2022-08-11T12:35:27;3.40;;;3.10;;
1785;SDS011;890;48.158;11.540;2022-08-11T12:37:54;4.00;;;3.27;;
1785;SDS011;890;48.158;11.540;2022-08-11T12:40:26;3.33;;;3.00;;
1785;SDS011;890;48.158;11.540;2022-08-11T12:43:15;4.37;;;3.23;;
1785;SDS011;890;48.158;11.540;2022-08-11T12:46:05;3.60;;;3.30;;
1785;SDS011;890;48.158;11.540;2022-08-11T12:48:36;3.57;;;3.27;;
1785;SDS011;890;48.158;11.540;2022-08-11T12:51:27;3.53;;;3.23;;
1785;SDS011;890;48.158;11.540;2022-08-11T12:54:21;3.50;;;3.20;;
1785;SDS011;890;48.158;11.540;2022-08-11T12:57:11;3.87;;;2.90;;
1785;SDS011;890;48.158;11.540;2022-08-11T13:00:01;4.47;;;4.07;;
1785;SDS011;890;48.158;11.540;2022-08-11T13:02:48;3.93;;;3.60;;
1785;SDS011;890;48.158;11.540;2022-08-11T13:05:32;4.07;;;3.77;;
1785;SDS011;890;48.158;11.540;2022-08-11T13:08:02;3.97;;;3.27;;
1785;SDS011;890;48.158;11.540;2022-08-11T13:10:28;3.50;;;3.20;;
1785;SDS011;890;48.158;11.540;2022-08-11T13:13:15;4.00;;;3.60;;
1785;SDS011;890;48.158;11.540;2022-08-11T13:15:44;3.80;;;3.50;;
1785;SDS011;890;48.158;11.540;2022-08-11T13:18:14;4.33;;;3.30;;
1785;SDS011;890;48.158;11.540;2022-08-11T13:20:41;3.40;;;3.17;;
1785;SDS011;890;48.158;11.540;2022-08-11T13:23:08;5.63;;;3.83;;
1785;SDS011;890;48.158;11.540;2022-08-11T13:25:37;3.43;;;3.13;;
1785;SDS011;890;48.158;11.540;2022-08-11T13:28:04;5.23;;;3.40;;
1785;SDS011;890;48.158;11.540;2022-08-11T13:30:30;3.87;;;3.57;;
1785;SDS011;890;48.158;11.540;2022-08-11T13:33:16;3.80;;;3.33;;
1785;SDS011;890;48.158;11.540;2022-08-11T13:35:46;3.50;;;3.20;;
1785;SDS011;890;48.158;11.540;2022-08-11T13:38:16;3.80;;;3.50;;
1785;SDS011;890;48.158;11.540;2022-08-11T13:40:43;3.47;;;3.27;;
1785;SDS011;890;48.158;11.540;2022-08-11T13:43:09;3.80;;;3.50;;
1785;SDS011;890;48.158;11.540;2022-08-11T13:45:37;3.97;;;3.67;;
1785;SDS011;890;48.158;11.540;2022-08-11T13:48:05;4.40;;;3.10;;
1785;SDS011;890;48.158;11.540;2022-08-11T13:50:33;3.93;;;3.20;;
1785;SDS011;890;48.158;11.540;2022-08-11T13:53:23;3.67;;;3.47;;
1785;SDS011;890;48.158;11.540;2022-08-11T13:55:50;3.53;;;3.23;;
1785;SDS011;890;48.158;11.540;2022-08-11T13:58:17;3.17;;;2.97;;
1785;SDS011;890;48.158;11.540;2022-08-11T14:00:44;3.50;;;3.20;;
1785;SDS011;890;48.158;11.540;2022-08-11T14:03:13;3.70;;;3.40;;
1785;SDS011;890;48.158;11.540;2022-08-11T14:05:45;3.90;;;3.50;;
1785;SDS011;890;48.158;11.540;2022-08-11T14:08:14;3.93;;;3.63;;
1785;SDS011;890;48.158;11.540;2022-08-11T14:10:42;3.80;;;3.50;;
1785;SDS011;890;48.158;11.540;2022-08-11T14:13:31;5.27;;;4.03;;
1785;SDS011;890;48.158;11.540;2022-08-11T14:16:06;3.70;;;3.40;;
1785;SDS011;890;48.158;11.540;2022-08-11T14:18:42;3.00;;;2.80;;
1785;SDS011;890;48.158;11.540;2022-08-11T14:21:10;5.20;;;3.33;;
1785;SDS011;890;48.158;11.540;2022-08-11T14:23:57;4.77;;;3.37;;
1785;SDS011;890;48.158;11.540;2022-08-11T14:26:24;4.10;;;3.70;;
1785;SDS011;890;48.158;11.540;2022-08-11T14:31:55;3.33;;;3.13;;
1785;SDS011;890;48.158;11.540;2022-08-11T14:34:23;8.07;;;6.07;;
1785;SDS011;890;48.158;11.540;2022-08-11T14:36:58;3.07;;;2.87;;
1785;SDS011;890;48.158;11.540;2022-08-11T14:39:29;5.00;;;3.10;;
1785;SDS011;890;48.158;11.540;2022-08-11T14:42:03;3.13;;;2.93;;
1785;SDS011;890;48.158;11.540;2022-08-11T14:44:57;3.43;;;3.13;;
1785;SDS011;890;48.158;11.540;2022-08-11T14:47:49;3.43;;;3.17;;
1785;SDS011;890;48.158;11.540;2022-08-11T14:50:17;3.20;;;2.97;;
1785;SDS011;890;48.158;11.540;2022-08-11T14:53:01;4.87;;;3.60;;
1785;SDS011;890;48.158;11.540;2022-08-11T14:55:29;3.80;;;3.57;;
1785;SDS011;890;48.158;11.540;2022-08-11T14:58:18;3.93;;;3.60;;
1785;SDS011;890;48.158;11.540;2022-08-11T15:00:46;3.67;;;3.37;;
1785;SDS011;890;48.158;11.540;2022-08-11T15:03:16;3.80;;;3.50;;
1785;SDS011;890;48.158;11.540;2022-08-11T15:05:52;3.97;;;3.50;;
1785;SDS011;890;48.158;11.540;2022-08-11T15:08:20;3.70;;;3.37;;
1785;SDS011;890;48.158;11.540;2022-08-11T15:11:09;3.53;;;3.23;;
1785;SDS011;890;48.158;11.540;2022-08-11T15:13:55;3.60;;;3.20;;
1785;SDS011;890;48.158;11.540;2022-08-11T15:16:24;3.40;;;2.93;;
1785;SDS011;890;48.158;11.540;2022-08-11T15:19:10;3.63;;;3.30;;
1785;SDS011;890;48.158;11.540;2022-08-11T15:21:36;3.90;;;3.50;;
1785;SDS011;890;48.158;11.540;2022-08-11T15:24:20;3.43;;;3.00;;
1785;SDS011;890;48.158;11.540;2022-08-11T15:26:48;3.67;;;3.20;;
1785;SDS011;890;48.158;11.540;2022-08-11T15:29:33;3.60;;;3.30;;
1785;SDS011;890;48.158;11.540;2022-08-11T15:32:20;3.53;;;3.20;;
1785;SDS011;890;48.158;11.540;2022-08-11T15:35:08;4.73;;;4.33;;
1785;SDS011;890;48.158;11.540;2022-08-11T15:37:55;3.20;;;3.00;;
1785;SDS011;890;48.158;11.540;2022-08-11T15:40:28;3.10;;;2.80;;
1785;SDS011;890;48.158;11.540;2022-08-11T15:43:28;3.40;;;3.10;;
1785;SDS011;890;48.158;11.540;2022-08-11T15:46:43;3.10;;;2.80;;
1785;SDS011;890;48.158;11.540;2022-08-11T15:49:13;3.27;;;2.97;;
1785;SDS011;890;48.158;11.540;2022-08-11T15:51:47;3.90;;;2.80;;
1785;SDS011;890;48.158;11.540;2022-08-11T15:54:17;3.30;;;3.10;;
1785;SDS011;890;48.158;11.540;2022-08-11T15:56:47;3.20;;;2.60;;
1785;SDS011;890;48.158;11.540;2022-08-11T15:59:16;3.43;;;2.77;;
1785;SDS011;890;48.158;11.540;2022-08-11T16:02:02;3.40;;;3.20;;
1785;SDS011;890;48.158;11.540;2022-08-11T16:04:35;3.53;;;3.23;;
1785;SDS011;890;48.158;11.540;2022-08-11T16:07:04;3.30;;;3.03;;
1785;SDS011;890;48.158;11.540;2022-08-11T16:12:12;3.10;;;2.90;;
1785;SDS011;890;48.158;11.540;2022-08-11T16:14:45;4.50;;;2.73;;
1785;SDS011;890;48.158;11.540;2022-08-11T16:17:34;4.43;;;3.07;;
1785;SDS011;890;48.158;11.540;2022-08-11T16:20:05;3.27;;;3.07;;
1785;SDS011;890;48.158;11.540;2022-08-11T16:22:33;4.13;;;2.97;;
1785;SDS011;890;48.158;11.540;2022-08-11T16:25:20;2.70;;;2.50;;
1785;SDS011;890;48.158;11.540;2022-08-11T16:27:50;3.40;;;3.07;;
1785;SDS011;890;48.158;11.540;2022-08-11T16:30:17;4.17;;;3.70;;
1785;SDS011;890;48.158;11.540;2022-08-11T16:32:44;3.97;;;3.53;;
1785;SDS011;890;48.158;11.540;2022-08-11T16:35:17;3.83;;;3.07;;
1785;SDS011;890;48.158;11.540;2022-08-11T16:38:03;3.40;;;2.87;;
1785;SDS011;890;48.158;11.540;2022-08-11T16:40:50;4.43;;;3.60;;
1785;SDS011;890;48.158;11.540;2022-08-11T16:43:17;3.57;;;2.70;;
1785;SDS011;890;48.158;11.540;2022-08-11T16:46:06;4.00;;;3.70;;
1785;SDS011;890;48.158;11.540;2022-08-11T16:48:51;3.13;;;2.90;;
1785;SDS011;890;48.158;11.540;2022-08-11T16:51:18;3.13;;;2.83;;
1785;SDS011;890;48.158;11.540;2022-08-11T16:53:46;2.97;;;2.77;;
1785;SDS011;890;48.158;11.540;2022-08-11T16:56:24;3.70;;;3.40;;
1785;SDS011;890;48.158;11.540;2022-08-11T16:59:05;3.13;;;2.83;;
1785;SDS011;890;48.158;11.540;2022-08-11T17:01:43;3.93;;;3.00;;
1785;SDS011;890;48.158;11.540;2022-08-11T17:04:38;5.20;;;3.17;;
1785;SDS011;890;48.158;11.540;2022-08-11T17:07:35;2.73;;;2.53;;
1785;SDS011;890;48.158;11.540;2022-08-11T17:10:26;3.30;;;3.00;;
1785;SDS011;890;48.158;11.540;2022-08-11T17:13:26;4.20;;;3.50;;
1785;SDS011;890;48.158;11.540;2022-08-11T17:16:00;3.70;;;3.40;;
1785;SDS011;890;48.158;11.540;2022-08-11T17:21:40;3.80;;;3.50;;
1785;SDS011;890;48.158;11.540;2022-08-11T17:24:29;3.10;;;2.73;;
1785;SDS011;890;48.158;11.540;2022-08-11T17:26:58;3.50;;;3.20;;
1785;SDS011;890;48.158;11.540;2022-08-11T17:31:56;3.70;;;2.70;;
1785;SDS011;890;48.158;11.540;2022-08-11T17:34:43;4.00;;;2.80;;
1785;SDS011;890;48.158;11.540;2022-08-11T17:37:30;3.53;;;3.23;;
1785;SDS011;890;48.158;11.540;2022-08-11T17:39:57;4.80;;;3.57;;
1785;SDS011;890;48.158;11.540;2022-08-11T17:42:26;3.73;;;3.40;;
1785;SDS011;890;48.158;11.540;2022-08-11T17:45:13;3.90;;;3.50;;
1785;SDS011;890;48.158;11.540;2022-08-11T17:47:59;3.30;;;3.00;;
1785;SDS011;890;48.158;11.540;2022-08-11T17:50:45;3.33;;;3.03;;
1785;SDS011;890;48.158;11.540;2022-08-11T17:53:13;3.00;;;2.80;;
1785;SDS011;890;48.158;11.540;2022-08-11T17:56:00;4.37;;;2.80;;
1785;SDS011;890;48.158;11.540;2022-08-11T17:58:59;3.10;;;2.90;;
1785;SDS011;890;48.158;11.540;2022-08-11T18:01:45;2.90;;;2.70;;
1785;SDS011;890;48.158;11.540;2022-08-11T18:04:12;3.47;;;2.87;;
1785;SDS011;890;48.158;11.540;2022-08-11T18:06:40;3.20;;;2.73;;
1785;SDS011;890;48.158;11.540;2022-08-11T18:09:12;4.30;;;2.60;;
1785;SDS011;890;48.158;11.540;2022-08-11T18:12:00;3.17;;;2.87;;
1785;SDS011;890;48.158;11.540;2022-08-11T18:14:46;4.20;;;2.77;;
1785;SDS011;890;48.158;11.540;2022-08-11T18:17:33;3.40;;;2.73;;
1785;SDS011;890;48.158;11.540;2022-08-11T18:20:18;3.37;;;2.43;;
1785;SDS011;890;48.158;11.540;2022-08-11T18:23:06;4.00;;;3.03;;
1785;SDS011;890;48.158;11.540;2022-08-11T18:25:54;3.33;;;3.00;;
1785;SDS011;890;48.158;11.540;2022-08-11T18:28:44;4.70;;;2.93;;
1785;SDS011;890;48.158;11.540;2022-08-11T18:31:32;3.00;;;2.80;;
1785;SDS011;890;48.158;11.540;2022-08-11T18:34:19;3.67;;;2.70;;
1785;SDS011;890;48.158;11.540;2022-08-11T18:37:18;2.80;;;2.60;;
1785;SDS011;890;48.158;11.540;2022-08-11T18:40:07;3.50;;;3.20;;
1785;SDS011;890;48.158;11.540;2022-08-11T18:42:57;4.47;;;2.77;;
1785;SDS011;890;48.158;11.540;2022-08-11T18:45:46;3.63;;;3.03;;
1785;SDS011;890;48.158;11.540;2022-08-11T18:48:35;3.90;;;2.70;;
1785;SDS011;890;48.158;11.540;2022-08-11T18:51:22;3.03;;;2.70;;
1785;SDS011;890;48.158;11.540;2022-08-11T18:54:08;2.43;;;2.23;;
1785;SDS011;890;48.158;11.540;2022-08-11T18:56:55;2.90;;;2.57;;
1785;SDS011;890;48.158;11.540;2022-08-11T18:59:43;3.20;;;2.90;;
1785;SDS011;890;48.158;11.540;2022-08-11T19:02:29;3.90;;;2.90;;
1785;SDS011;890;48.158;11.540;2022-08-11T19:05:16;4.10;;;2.63;;
1785;SDS011;890;48.158;11.540;2022-08-11T19:08:01;3.30;;;3.00;;
1785;SDS011;890;48.158;11.540;2022-08-11T19:10:47;5.47;;;4.43;;
1785;SDS011;890;48.158;11.540;2022-08-11T19:13:32;4.00;;;3.70;;
1785;SDS011;890;48.158;11.540;2022-08-11T19:16:19;3.60;;;2.77;;
1785;SDS011;890;48.158;11.540;2022-08-11T19:19:06;3.43;;;3.20;;
1785;SDS011;890;48.158;11.540;2022-08-11T19:21:52;4.90;;;3.63;;
1785;SDS011;890;48.158;11.540;2022-08-11T19:24:36;3.67;;;3.00;;
1785;SDS011;890;48.158;11.540;2022-08-11T19:27:23;2.97;;;2.77;;
1785;SDS011;890;48.158;11.540;2022-08-11T19:30:09;3.63;;;3.33;;
1785;SDS011;890;48.158;11.540;2022-08-11T19:32:54;2.93;;;2.73;;
1785;SDS011;890;48.158;11.540;2022-08-11T19:35:39;3.20;;;2.90;;
1785;SDS011;890;48.158;11.540;2022-08-11T19:38:25;3.07;;;2.83;;
1785;SDS011;890;48.158;11.540;2022-08-11T19:41:10;2.80;;;2.60;;
1785;SDS011;890;48.158;11.540;2022-08-11T19:43:55;3.50;;;3.30;;
1785;SDS011;890;48.158;11.540;2022-08-11T19:46:40;3.30;;;2.97;;
1785;SDS011;890;48.158;11.540;2022-08-11T19:49:26;3.30;;;3.00;;
1785;SDS011;890;48.158;11.540;2022-08-11T19:52:12;3.00;;;2.80;;
1785;SDS011;890;48.158;11.540;2022-08-11T19:54:57;4.37;;;3.43;;
1785;SDS011;890;48.158;11.540;2022-08-11T19:57:43;3.37;;;3.07;;
1785;SDS011;890;48.158;11.540;2022-08-11T20:00:29;4.50;;;3.30;;
1785;SDS011;890;48.158;11.540;2022-08-11T20:03:13;6.80;;;3.83;;
1785;SDS011;890;48.158;11.540;2022-08-11T20:05:58;3.83;;;3.17;;
1785;SDS011;890;48.158;11.540;2022-08-11T20:08:46;3.90;;;3.03;;
1785;SDS011;890;48.158;11.540;2022-08-11T20:11:35;5.70;;;3.40;;